Time;durP1;ratioP1;P1;durP2;ratioP2;P2;SDS_P1;SDS_P2;PMS_P1;PMS_P2;Temp;Humidity;BMP_temperature;BMP_pressure;BME280_temperature;BME280_humidity;BME280_pressure;Samples;Min_cycle;Max_cycle;Signal;HPM_P1;HPM_P2
2021/06/02 00:01:17;;;;;;;9.57;6.85;;;;;;;;;;4988852;28;20034;-63
2021/06/02 00:03:43;;;;;;;10.50;6.25;;;;;;;;;;4988196;28;20508;-64
2021/06/02 00:06:10;;;;;;;8.10;5.70;;;;;;;;;;4988814;28;21496;-63
2021/06/02 00:08:38;;;;;;;11.93;6.22;;;;;;;;;;4985954;28;20041;-64
2021/06/02 00:11:07;;;;;;;11.68;6.38;;;;;;;;;;4986447;28;20812;-64
2021/06/02 00:13:36;;;;;;;10.90;6.40;;;;;;;;;;4995114;28;20071;-63
2021/06/02 00:16:02;;;;;;;9.70;5.57;;;;;;;;;;4987129;28;20045;-63
2021/06/02 00:18:28;;;;;;;10.13;6.38;;;;;;;;;;4986296;28;20030;-63
2021/06/02 00:20:55;;;;;;;10.93;5.45;;;;;;;;;;4987301;28;20044;-63
2021/06/02 00:23:21;;;;;;;15.35;6.13;;;;;;;;;;4986993;28;20109;-63
2021/06/02 00:25:48;;;;;;;9.60;5.07;;;;;;;;;;4988395;28;20031;-63
2021/06/02 00:28:16;;;;;;;8.65;5.03;;;;;;;;;;4988461;28;20031;-63
2021/06/02 00:30:44;;;;;;;8.88;5.32;;;;;;;;;;4987670;28;20074;-63
2021/06/02 00:33:11;;;;;;;10.32;5.68;;;;;;;;;;4985442;28;20050;-63
2021/06/02 00:35:38;;;;;;;11.88;6.25;;;;;;;;;;4990108;28;20274;-63
2021/06/02 00:38:04;;;;;;;9.30;5.60;;;;;;;;;;4985748;28;20030;-64
2021/06/02 00:40:43;;;;;;;8.60;5.85;;;;;;;;;;4989065;28;20038;-64
2021/06/02 00:43:10;;;;;;;11.45;6.68;;;;;;;;;;4985165;28;20027;-63
2021/06/02 00:45:36;;;;;;;10.75;5.93;;;;;;;;;;4986636;28;20042;-64
2021/06/02 00:48:03;;;;;;;11.57;5.57;;;;;;;;;;4986886;28;20084;-63
2021/06/02 00:50:30;;;;;;;9.45;5.55;;;;;;;;;;4987913;28;20030;-63
2021/06/02 00:52:56;;;;;;;17.35;6.60;;;;;;;;;;4986210;28;20018;-63
2021/06/02 00:55:22;;;;;;;9.60;5.78;;;;;;;;;;4987806;28;20022;-64
2021/06/02 00:57:49;;;;;;;10.07;5.78;;;;;;;;;;4987893;28;20044;-64
2021/06/02 01:00:16;;;;;;;12.07;6.55;;;;;;;;;;4986157;28;20080;-64
2021/06/02 01:02:46;;;;;;;12.52;5.90;;;;;;;;;;4986327;28;20101;-63
2021/06/02 01:05:13;;;;;;;9.05;5.88;;;;;;;;;;4992537;28;20039;-63
2021/06/02 01:07:39;;;;;;;9.65;5.90;;;;;;;;;;4987546;28;20034;-63
2021/06/02 01:10:05;;;;;;;11.60;6.03;;;;;;;;;;4985601;28;20027;-64
2021/06/02 01:12:31;;;;;;;11.60;5.90;;;;;;;;;;4984965;28;20019;-63
2021/06/02 01:14:58;;;;;;;11.30;6.43;;;;;;;;;;4985216;28;20030;-63
2021/06/02 01:17:26;;;;;;;10.45;6.18;;;;;;;;;;4985770;28;20034;-63
2021/06/02 01:19:53;;;;;;;10.65;6.47;;;;;;;;;;4987382;28;20094;-63
2021/06/02 01:22:19;;;;;;;9.75;5.30;;;;;;;;;;4987481;28;20033;-63
2021/06/02 01:24:45;;;;;;;9.85;5.25;;;;;;;;;;4987103;28;20056;-63
2021/06/02 01:27:12;;;;;;;9.15;6.00;;;;;;;;;;4987863;28;20021;-64
2021/06/02 01:29:46;;;;;;;17.50;6.93;;;;;;;;;;4994322;28;20042;-63
2021/06/02 01:32:22;;;;;;;8.27;5.35;;;;;;;;;;4984955;28;20088;-63
2021/06/02 01:35:06;;;;;;;9.50;5.43;;;;;;;;;;4984576;28;20525;-63
2021/06/02 01:37:48;;;;;;;11.43;5.15;;;;;;;;;;4987729;28;20046;-63
2021/06/02 01:40:29;;;;;;;11.02;6.07;;;;;;;;;;4986114;28;20470;-63
2021/06/02 01:42:55;;;;;;;9.32;5.90;;;;;;;;;;4986528;28;20035;-63
2021/06/02 01:45:21;;;;;;;9.43;5.22;;;;;;;;;;4986082;28;20060;-63
2021/06/02 01:48:02;;;;;;;11.82;6.30;;;;;;;;;;4986759;28;20031;-63
2021/06/02 01:50:28;;;;;;;13.85;5.82;;;;;;;;;;4986957;28;20026;-63
2021/06/02 01:52:54;;;;;;;9.27;5.88;;;;;;;;;;4983173;28;20126;-64
2021/06/02 01:55:28;;;;;;;10.05;5.65;;;;;;;;;;4984931;28;20029;-63
2021/06/02 01:58:06;;;;;;;11.20;6.50;;;;;;;;;;4985669;28;20034;-63
2021/06/02 02:00:51;;;;;;;10.23;5.40;;;;;;;;;;4987309;28;20062;-63
2021/06/02 02:03:26;;;;;;;7.88;5.25;;;;;;;;;;4984939;28;20027;-63
2021/06/02 02:05:55;;;;;;;10.13;6.00;;;;;;;;;;4990379;28;20019;-63
2021/06/02 02:08:28;;;;;;;10.80;5.63;;;;;;;;;;4988172;28;20064;-63
2021/06/02 02:11:09;;;;;;;9.88;5.85;;;;;;;;;;4998886;28;20030;-64
2021/06/02 02:13:51;;;;;;;9.83;5.77;;;;;;;;;;4989327;28;20053;-63
2021/06/02 02:16:32;;;;;;;11.98;6.18;;;;;;;;;;4984808;28;20513;-63
2021/06/02 02:19:02;;;;;;;10.63;6.45;;;;;;;;;;4989812;28;20513;-63
2021/06/02 02:21:28;;;;;;;9.63;6.30;;;;;;;;;;4992891;28;20056;-63
2021/06/02 02:24:16;;;;;;;13.43;6.75;;;;;;;;;;4985158;28;20042;-63
2021/06/02 02:27:00;;;;;;;10.77;6.65;;;;;;;;;;4990145;28;20038;-63
2021/06/02 02:29:40;;;;;;;11.48;6.43;;;;;;;;;;4989391;28;20109;-64
2021/06/02 02:32:25;;;;;;;11.55;6.82;;;;;;;;;;4988156;28;20508;-63
2021/06/02 02:34:56;;;;;;;11.07;6.50;;;;;;;;;;4988604;28;20022;-63
2021/06/02 02:37:40;;;;;;;12.05;6.63;;;;;;;;;;4990065;28;20076;-63
2021/06/02 02:40:06;;;;;;;12.65;7.15;;;;;;;;;;4996700;28;20030;-63
2021/06/02 02:42:44;;;;;;;10.18;6.45;;;;;;;;;;4987146;28;20030;-63
2021/06/02 02:45:22;;;;;;;13.55;6.50;;;;;;;;;;4989481;28;20029;-63
2021/06/02 02:47:55;;;;;;;12.85;6.22;;;;;;;;;;4989479;28;20034;-64
2021/06/02 02:50:25;;;;;;;12.27;7.07;;;;;;;;;;4990067;28;20087;-63
2021/06/02 02:53:14;;;;;;;15.93;6.57;;;;;;;;;;4988555;28;20490;-63
2021/06/02 02:55:40;;;;;;;9.40;6.55;;;;;;;;;;4980166;28;20457;-64
2021/06/02 02:58:25;;;;;;;9.52;6.20;;;;;;;;;;4989633;28;20476;-64
2021/06/02 03:00:59;;;;;;;15.02;7.53;;;;;;;;;;4989541;28;20117;-63
2021/06/02 03:03:33;;;;;;;13.38;6.95;;;;;;;;;;4988559;28;20034;-64
2021/06/02 03:06:05;;;;;;;15.45;8.07;;;;;;;;;;4988748;28;20034;-63
2021/06/02 03:08:46;;;;;;;12.32;8.07;;;;;;;;;;4989473;28;20022;-63
2021/06/02 03:11:24;;;;;;;10.93;7.65;;;;;;;;;;4989252;28;20105;-63
2021/06/02 03:14:05;;;;;;;17.20;7.57;;;;;;;;;;4988384;28;20023;-63
2021/06/02 03:16:36;;;;;;;11.80;8.05;;;;;;;;;;4986679;28;20034;-63
2021/06/02 03:19:11;;;;;;;15.17;8.03;;;;;;;;;;4987489;28;20497;-64
2021/06/02 03:21:37;;;;;;;11.90;7.60;;;;;;;;;;4990864;28;20272;-63
2021/06/02 03:24:15;;;;;;;13.25;7.63;;;;;;;;;;4986364;28;20629;-64
2021/06/02 03:26:49;;;;;;;13.23;8.73;;;;;;;;;;4989853;28;20489;-64
2021/06/02 03:29:15;;;;;;;13.13;7.53;;;;;;;;;;4985983;28;20030;-64
2021/06/02 03:31:47;;;;;;;12.68;7.05;;;;;;;;;;4989570;28;20451;-64
2021/06/02 03:34:13;;;;;;;;;;;;;;;;;;4989205;28;20096;-64
2021/06/02 03:36:57;;;;;;;16.55;7.90;;;;;;;;;;4988777;28;20338;-63
2021/06/02 03:39:42;;;;;;;14.38;7.35;;;;;;;;;;4986810;28;20026;-64
2021/06/02 03:42:26;;;;;;;12.63;7.38;;;;;;;;;;4987152;28;20027;-63
2021/06/02 03:44:55;;;;;;;15.55;8.10;;;;;;;;;;4987453;28;20034;-63
2021/06/02 03:47:40;;;;;;;11.98;8.35;;;;;;;;;;4988788;28;20026;-63
2021/06/02 03:50:06;;;;;;;13.93;8.30;;;;;;;;;;4988316;28;20037;-64
2021/06/02 03:53:01;;;;;;;14.50;8.05;;;;;;;;;;4987684;28;20030;-64
2021/06/02 03:55:32;;;;;;;14.88;7.88;;;;;;;;;;4981896;28;20046;-64
2021/06/02 03:58:10;;;;;;;13.63;8.27;;;;;;;;;;4988829;28;20088;-64
2021/06/02 04:00:38;;;;;;;14.38;8.20;;;;;;;;;;4988298;28;20034;-64
2021/06/02 04:03:08;;;;;;;14.85;8.48;;;;;;;;;;4985099;28;20030;-64
2021/06/02 04:05:42;;;;;;;13.05;8.15;;;;;;;;;;4988462;28;20046;-64
2021/06/02 04:08:23;;;;;;;12.68;7.95;;;;;;;;;;4986719;28;20053;-64
2021/06/02 04:10:49;;;;;;;16.35;9.40;;;;;;;;;;4989006;28;20036;-64
2021/06/02 04:13:34;;;;;;;13.35;7.60;;;;;;;;;;4986305;28;20023;-64
2021/06/02 04:16:12;;;;;;;14.38;8.60;;;;;;;;;;4988299;28;20033;-64
2021/06/02 04:18:38;;;;;;;15.93;8.52;;;;;;;;;;4988229;28;20037;-64
2021/06/02 04:21:05;;;;;;;12.88;7.88;;;;;;;;;;4994693;28;20072;-64
2021/06/02 04:23:32;;;;;;;15.77;8.88;;;;;;;;;;4987610;28;20030;-64
2021/06/02 04:26:01;;;;;;;12.48;8.60;;;;;;;;;;4986889;28;20037;-64
2021/06/02 04:28:28;;;;;;;15.40;9.88;;;;;;;;;;4986044;28;20119;-64
2021/06/02 04:30:57;;;;;;;15.43;8.98;;;;;;;;;;4987468;28;20023;-64
2021/06/02 04:33:24;;;;;;;15.77;9.73;;;;;;;;;;4987041;28;20014;-64
2021/06/02 04:35:51;;;;;;;14.00;9.10;;;;;;;;;;4985813;28;20413;-64
2021/06/02 04:38:19;;;;;;;13.48;9.10;;;;;;;;;;4988032;28;20060;-64
2021/06/02 04:40:45;;;;;;;13.70;8.98;;;;;;;;;;4988571;28;20106;-64
2021/06/02 04:43:12;;;;;;;16.95;9.80;;;;;;;;;;4991285;28;20538;-64
2021/06/02 04:45:39;;;;;;;18.02;11.20;;;;;;;;;;4991763;28;20035;-64
2021/06/02 04:48:06;;;;;;;14.82;9.25;;;;;;;;;;4985511;28;20496;-64
2021/06/02 04:50:36;;;;;;;19.38;9.95;;;;;;;;;;4984043;28;20052;-64
2021/06/02 04:53:20;;;;;;;17.98;10.88;;;;;;;;;;4975163;28;20034;-64
2021/06/02 04:56:05;;;;;;;16.92;10.30;;;;;;;;;;4972371;28;20087;-64
2021/06/02 04:58:48;;;;;;;15.43;10.10;;;;;;;;;;4989098;28;20051;-64
2021/06/02 05:01:21;;;;;;;19.65;10.73;;;;;;;;;;4981762;28;20030;-64
2021/06/02 05:03:51;;;;;;;16.30;9.82;;;;;;;;;;4982050;28;20034;-64
2021/06/02 05:06:37;;;;;;;17.20;10.10;;;;;;;;;;4982076;28;20030;-65
2021/06/02 05:09:07;;;;;;;16.80;10.15;;;;;;;;;;4981726;28;20097;-64
2021/06/02 05:11:45;;;;;;;16.23;10.02;;;;;;;;;;4983636;28;20022;-64
2021/06/02 05:14:30;;;;;;;13.95;8.52;;;;;;;;;;4984651;28;20034;-64
2021/06/02 05:17:05;;;;;;;16.52;10.45;;;;;;;;;;5010081;28;20026;-64
2021/06/02 05:19:48;;;;;;;12.43;8.85;;;;;;;;;;4986550;28;20034;-64
2021/06/02 05:22:32;;;;;;;16.70;10.32;;;;;;;;;;4982081;28;20047;-64
2021/06/02 05:25:14;;;;;;;15.25;9.18;;;;;;;;;;4988250;28;20525;-64
2021/06/02 05:27:55;;;;;;;16.48;10.50;;;;;;;;;;4983874;28;20037;-64
2021/06/02 05:30:21;;;;;;;14.27;9.10;;;;;;;;;;4984999;28;20041;-64
2021/06/02 05:33:06;;;;;;;16.30;9.90;;;;;;;;;;4983993;28;20013;-64
2021/06/02 05:35:42;;;;;;;16.17;10.27;;;;;;;;;;5033943;28;20359;-64
2021/06/02 05:38:31;;;;;;;17.90;11.10;;;;;;;;;;4969953;28;20066;-64
2021/06/02 05:41:03;;;;;;;18.38;9.80;;;;;;;;;;4977770;28;20109;-64
2021/06/02 05:43:29;;;;;;;17.83;11.60;;;;;;;;;;4988005;28;20152;-64
2021/06/02 05:45:55;;;;;;;15.45;10.18;;;;;;;;;;4989706;28;20037;-64
2021/06/02 05:48:43;;;;;;;19.77;10.45;;;;;;;;;;4988864;28;20023;-64
2021/06/02 05:51:27;;;;;;;19.08;11.07;;;;;;;;;;4989042;28;20050;-64
2021/06/02 05:53:59;;;;;;;16.85;10.55;;;;;;;;;;4986389;28;20030;-64
2021/06/02 05:56:25;;;;;;;;;;;;;;;;;;4988563;28;20044;-64
2021/06/02 05:59:02;;;;;;;20.17;10.90;;;;;;;;;;4983473;28;20423;-64
2021/06/02 06:01:48;;;;;;;17.67;10.60;;;;;;;;;;4986136;28;20196;-65
2021/06/02 06:04:43;;;;;;;20.00;11.93;;;;;;;;;;4979984;28;20038;-64
2021/06/02 06:07:28;;;;;;;20.10;10.50;;;;;;;;;;4987671;28;20116;-64
2021/06/02 06:10:02;;;;;;;17.95;11.55;;;;;;;;;;4987512;28;20117;-65
2021/06/02 06:12:34;;;;;;;19.90;12.25;;;;;;;;;;4984029;28;20022;-64
2021/06/02 06:15:19;;;;;;;18.42;10.50;;;;;;;;;;4983722;28;20034;-64
2021/06/02 06:18:03;;;;;;;17.52;11.32;;;;;;;;;;4984359;28;20038;-64
2021/06/02 06:20:52;;;;;;;18.08;11.43;;;;;;;;;;4983355;28;20039;-65
2021/06/02 06:23:31;;;;;;;21.15;11.88;;;;;;;;;;4980496;28;20045;-65
2021/06/02 06:26:01;;;;;;;19.10;11.82;;;;;;;;;;4982646;28;20056;-64
2021/06/02 06:28:32;;;;;;;16.48;10.85;;;;;;;;;;4985046;28;20026;-65
2021/06/02 06:30:59;;;;;;;17.27;12.15;;;;;;;;;;4988858;28;20034;-64
2021/06/02 06:33:27;;;;;;;18.27;11.18;;;;;;;;;;4986080;28;20026;-64
2021/06/02 06:35:54;;;;;;;18.15;12.02;;;;;;;;;;4985715;28;20027;-64
2021/06/02 06:38:44;;;;;;;14.23;10.05;;;;;;;;;;4986803;28;20026;-65
2021/06/02 06:41:11;;;;;;;15.70;10.18;;;;;;;;;;4980722;28;20571;-65
2021/06/02 06:43:38;;;;;;;17.35;11.25;;;;;;;;;;4985834;28;20117;-65
2021/06/02 06:46:04;;;;;;;19.08;11.20;;;;;;;;;;4983095;28;20034;-65
2021/06/02 06:48:30;;;;;;;18.25;10.57;;;;;;;;;;4987942;28;20084;-65
2021/06/02 06:50:58;;;;;;;13.70;10.20;;;;;;;;;;4985913;28;20501;-65
2021/06/02 06:53:26;;;;;;;16.48;10.52;;;;;;;;;;4986763;28;20026;-65
2021/06/02 06:55:52;;;;;;;20.42;11.98;;;;;;;;;;4988685;28;20038;-65
2021/06/02 06:58:19;;;;;;;19.95;11.00;;;;;;;;;;4991290;28;20071;-65
2021/06/02 07:00:46;;;;;;;16.88;10.85;;;;;;;;;;4991112;28;20123;-65
2021/06/02 07:03:14;;;;;;;16.95;9.70;;;;;;;;;;4988318;28;20061;-65
2021/06/02 07:05:41;;;;;;;15.95;10.45;;;;;;;;;;4984093;28;20026;-65
2021/06/02 07:08:08;;;;;;;15.20;9.52;;;;;;;;;;4988963;28;20481;-64
2021/06/02 07:10:34;;;;;;;17.50;9.82;;;;;;;;;;4988764;28;20865;-64
2021/06/02 07:13:00;;;;;;;12.73;9.15;;;;;;;;;;4985805;28;20026;-64
2021/06/02 07:15:27;;;;;;;13.25;8.93;;;;;;;;;;4982776;28;20023;-65
2021/06/02 07:17:53;;;;;;;16.75;9.57;;;;;;;;;;5007309;28;20493;-64
2021/06/02 07:20:24;;;;;;;18.08;10.38;;;;;;;;;;4988531;28;20018;-65
2021/06/02 07:22:51;;;;;;;17.33;10.43;;;;;;;;;;4988680;28;20296;-64
2021/06/02 07:25:21;;;;;;;16.02;10.10;;;;;;;;;;4989670;28;20024;-64
2021/06/02 07:27:47;;;;;;;14.57;9.80;;;;;;;;;;4984131;28;20053;-65
2021/06/02 07:30:14;;;;;;;17.42;11.00;;;;;;;;;;4998243;28;20027;-65
2021/06/02 07:32:40;;;;;;;15.02;10.55;;;;;;;;;;4979589;28;20025;-64
2021/06/02 07:35:06;;;;;;;14.13;10.20;;;;;;;;;;4985575;28;20027;-64
2021/06/02 07:37:33;;;;;;;18.15;11.23;;;;;;;;;;4985076;28;20025;-65
2021/06/02 07:40:00;;;;;;;14.75;10.35;;;;;;;;;;4980989;28;20782;-65
2021/06/02 07:42:26;;;;;;;14.35;10.18;;;;;;;;;;4980910;28;20649;-65
2021/06/02 07:44:53;;;;;;;13.40;9.82;;;;;;;;;;4982047;28;20022;-64
2021/06/02 07:47:19;;;;;;;14.38;9.40;;;;;;;;;;4978214;28;20109;-65
2021/06/02 07:49:45;;;;;;;13.75;9.73;;;;;;;;;;4977982;28;20037;-64
2021/06/02 07:52:11;;;;;;;15.60;9.70;;;;;;;;;;4981575;28;20023;-64
2021/06/02 07:54:37;;;;;;;13.27;9.77;;;;;;;;;;4999240;28;20099;-65
2021/06/02 07:57:03;;;;;;;14.45;8.00;;;;;;;;;;4988452;28;20053;-65
2021/06/02 07:59:30;;;;;;;12.05;7.88;;;;;;;;;;4981109;28;20594;-65
2021/06/02 08:01:56;;;;;;;13.43;7.38;;;;;;;;;;4982426;28;20053;-65
2021/06/02 08:04:22;;;;;;;12.90;6.90;;;;;;;;;;4981451;28;20083;-64
2021/06/02 08:06:48;;;;;;;10.70;6.95;;;;;;;;;;4982927;28;20507;-65
2021/06/02 08:09:17;;;;;;;13.15;6.35;;;;;;;;;;4979305;28;21387;-64
2021/06/02 08:11:45;;;;;;;13.63;6.38;;;;;;;;;;4985985;28;20049;-65
2021/06/02 08:14:11;;;;;;;12.85;6.60;;;;;;;;;;4977861;28;20023;-64
2021/06/02 08:16:37;;;;;;;11.02;6.18;;;;;;;;;;4981708;28;20030;-64
2021/06/02 08:19:03;;;;;;;10.73;6.63;;;;;;;;;;4982910;28;20038;-64
2021/06/02 08:21:29;;;;;;;11.68;6.25;;;;;;;;;;4987948;28;20562;-64
2021/06/02 08:23:55;;;;;;;12.82;6.57;;;;;;;;;;4979779;28;20148;-64
2021/06/02 08:26:21;;;;;;;11.57;6.72;;;;;;;;;;4980285;28;20026;-65
2021/06/02 08:28:48;;;;;;;10.23;6.70;;;;;;;;;;4977292;28;20023;-65
2021/06/02 08:31:14;;;;;;;9.68;6.18;;;;;;;;;;4972757;28;20118;-64
2021/06/02 08:33:42;;;;;;;11.32;5.15;;;;;;;;;;4979712;28;20014;-64
2021/06/02 08:36:08;;;;;;;10.63;5.45;;;;;;;;;;4983603;28;20019;-64
2021/06/02 08:38:34;;;;;;;9.80;5.32;;;;;;;;;;4984565;28;20105;-64
2021/06/02 08:41:00;;;;;;;7.32;4.03;;;;;;;;;;4983787;28;20397;-64
2021/06/02 08:43:26;;;;;;;9.02;5.28;;;;;;;;;;4980537;28;20058;-64
2021/06/02 08:45:56;;;;;;;8.82;5.07;;;;;;;;;;4979817;28;20131;-64
2021/06/02 08:48:22;;;;;;;8.32;5.15;;;;;;;;;;4979140;28;20030;-65
2021/06/02 08:50:48;;;;;;;10.02;4.57;;;;;;;;;;4987220;28;20029;-65
2021/06/02 08:53:19;;;;;;;14.82;4.90;;;;;;;;;;4977842;28;20023;-64
2021/06/02 08:55:45;;;;;;;12.27;5.90;;;;;;;;;;4979126;28;20035;-65
2021/06/02 08:58:22;;;;;;;12.05;5.43;;;;;;;;;;4979995;28;20043;-65
2021/06/02 09:00:48;;;;;;;10.75;4.68;;;;;;;;;;4978368;28;20142;-64
2021/06/02 09:03:15;;;;;;;10.55;5.30;;;;;;;;;;4979545;28;20136;-64
2021/06/02 09:05:41;;;;;;;9.52;4.18;;;;;;;;;;4979071;28;20535;-64
2021/06/02 09:08:07;;;;;;;10.23;5.05;;;;;;;;;;4982824;28;20071;-65
2021/06/02 09:10:37;;;;;;;9.70;4.80;;;;;;;;;;4993752;28;20029;-64
2021/06/02 09:13:04;;;;;;;8.70;4.55;;;;;;;;;;4991250;28;20070;-64
2021/06/02 09:15:34;;;;;;;5.93;3.20;;;;;;;;;;4984004;28;20594;-64
2021/06/02 09:18:06;;;;;;;7.03;4.05;;;;;;;;;;4977144;28;20113;-64
2021/06/02 09:20:32;;;;;;;6.57;3.72;;;;;;;;;;4984031;28;20165;-65
2021/06/02 09:23:00;;;;;;;6.88;3.35;;;;;;;;;;4981069;28;20121;-65
2021/06/02 09:25:26;;;;;;;6.25;3.30;;;;;;;;;;4980898;28;20041;-65
2021/06/02 09:28:00;;;;;;;10.30;6.18;;;;;;;;;;4982413;28;20038;-64
2021/06/02 09:30:38;;;;;;;9.73;5.90;;;;;;;;;;4979654;28;20057;-64
2021/06/02 09:33:05;;;;;;;13.90;7.80;;;;;;;;;;4976815;28;21312;-64
2021/06/02 09:35:38;;;;;;;11.02;6.25;;;;;;;;;;4980989;28;20030;-65
2021/06/02 09:38:05;;;;;;;8.55;4.45;;;;;;;;;;4979051;28;20040;-64
2021/06/02 09:40:38;;;;;;;8.50;4.32;;;;;;;;;;4979353;28;20034;-65
2021/06/02 09:43:05;;;;;;;7.95;4.57;;;;;;;;;;4974313;28;20117;-65
2021/06/02 09:45:32;;;;;;;8.05;4.25;;;;;;;;;;4983080;28;20033;-66
2021/06/02 09:48:04;;;;;;;7.95;4.35;;;;;;;;;;4981890;28;20050;-65
2021/06/02 09:50:30;;;;;;;;;;;;;;;;;;4983465;28;20085;-65
2021/06/02 09:52:57;;;;;;;7.32;4.07;;;;;;;;;;4978468;28;19975;-65
2021/06/02 09:55:24;;;;;;;8.40;4.38;;;;;;;;;;4984982;28;20489;-65
2021/06/02 09:58:06;;;;;;;8.00;4.10;;;;;;;;;;4979967;28;20034;-66
2021/06/02 10:00:35;;;;;;;6.90;4.30;;;;;;;;;;4979769;28;20113;-66
2021/06/02 10:03:12;;;;;;;7.72;3.95;;;;;;;;;;4980313;28;20117;-64
2021/06/02 10:05:38;;;;;;;6.72;4.05;;;;;;;;;;4981979;28;20023;-65
2021/06/02 10:08:04;;;;;;;6.65;4.15;;;;;;;;;;4979096;28;20044;-65
2021/06/02 10:10:31;;;;;;;13.82;6.32;;;;;;;;;;4981510;28;20038;-67
2021/06/02 10:12:57;;;;;;;11.60;6.80;;;;;;;;;;4977121;28;20035;-65
2021/06/02 10:15:40;;;;;;;11.48;5.88;;;;;;;;;;4982650;28;20026;-66
2021/06/02 10:18:23;;;;;;;10.50;6.43;;;;;;;;;;4992705;28;20016;-64
2021/06/02 10:21:08;;;;;;;10.15;5.53;;;;;;;;;;4986192;28;20070;-66
2021/06/02 10:23:40;;;;;;;7.88;5.07;;;;;;;;;;5019090;28;20436;-66
2021/06/02 10:26:07;;;;;;;8.40;6.07;;;;;;;;;;4987443;28;20030;-65
2021/06/02 10:28:33;;;;;;;8.05;4.07;;;;;;;;;;4989792;28;20103;-65
2021/06/02 10:31:04;;;;;;;6.93;3.75;;;;;;;;;;5005898;28;20046;-66
2021/06/02 10:33:30;;;;;;;6.53;3.50;;;;;;;;;;4982759;28;20033;-65
2021/06/02 10:35:57;;;;;;;6.22;4.13;;;;;;;;;;4988757;28;20030;-66
2021/06/02 10:38:24;;;;;;;9.00;4.10;;;;;;;;;;4988685;28;20516;-66
2021/06/02 10:40:50;;;;;;;6.80;4.00;;;;;;;;;;4975446;28;20061;-66
2021/06/02 10:43:19;;;;;;;6.97;4.25;;;;;;;;;;4985589;28;20038;-65
2021/06/02 10:45:46;;;;;;;7.55;4.00;;;;;;;;;;4982537;28;20065;-66
2021/06/02 10:48:12;;;;;;;10.77;3.92;;;;;;;;;;4994968;28;20393;-67
2021/06/02 10:50:47;;;;;;;10.23;4.68;;;;;;;;;;5008759;28;20029;-65
2021/06/02 10:53:22;;;;;;;7.90;4.50;;;;;;;;;;4989840;28;20023;-64
2021/06/02 10:55:49;;;;;;;8.13;5.13;;;;;;;;;;4989712;28;20067;-65
2021/06/02 10:58:16;;;;;;;8.10;4.00;;;;;;;;;;4992385;28;20518;-65
2021/06/02 11:00:42;;;;;;;9.13;4.15;;;;;;;;;;4993506;28;20060;-64
2021/06/02 11:03:23;;;;;;;11.55;5.28;;;;;;;;;;4986215;28;20022;-64
2021/06/02 11:05:58;;;;;;;7.00;4.50;;;;;;;;;;5011562;28;20076;-64
2021/06/02 11:08:44;;;;;;;8.00;4.57;;;;;;;;;;4993744;28;20030;-65
2021/06/02 11:11:20;;;;;;;6.65;3.97;;;;;;;;;;4995969;28;20033;-64
2021/06/02 11:14:06;;;;;;;6.38;3.88;;;;;;;;;;4984157;28;20401;-65
2021/06/02 11:16:38;;;;;;;10.30;4.80;;;;;;;;;;5014667;28;20045;-66
2021/06/02 11:19:15;;;;;;;6.80;4.43;;;;;;;;;;5004225;28;20495;-65
2021/06/02 11:21:56;;;;;;;9.35;4.00;;;;;;;;;;4996859;28;20031;-66
2021/06/02 11:24:34;;;;;;;7.40;4.25;;;;;;;;;;5052812;28;20340;-65
2021/06/02 11:27:13;;;;;;;6.75;4.13;;;;;;;;;;5008600;28;20088;-65
2021/06/02 11:29:45;;;;;;;9.05;3.78;;;;;;;;;;4993163;28;20034;-65
2021/06/02 11:32:30;;;;;;;7.32;4.03;;;;;;;;;;4979920;28;20031;-65
2021/06/02 11:34:57;;;;;;;7.55;3.40;;;;;;;;;;4990453;28;20381;-65
2021/06/02 11:37:26;;;;;;;6.55;3.13;;;;;;;;;;4985746;28;20034;-65
2021/06/02 11:39:53;;;;;;;4.60;3.00;;;;;;;;;;4988463;28;20469;-66
2021/06/02 11:42:35;;;;;;;5.82;2.97;;;;;;;;;;4988313;28;20092;-66
2021/06/02 11:45:05;;;;;;;6.97;2.50;;;;;;;;;;4988420;28;20030;-68
2021/06/02 11:47:31;;;;;;;8.48;3.10;;;;;;;;;;4985860;28;20019;-67
2021/06/02 11:50:11;;;;;;;7.40;2.83;;;;;;;;;;4986814;28;20030;-67
2021/06/02 11:52:37;;;;;;;6.80;2.60;;;;;;;;;;4992685;28;20031;-66
2021/06/02 11:55:05;;;;;;;5.10;2.60;;;;;;;;;;4994860;28;20041;-72
2021/06/02 11:57:31;;;;;;;6.53;2.95;;;;;;;;;;4981312;28;20045;-66
2021/06/02 11:59:57;;;;;;;4.75;2.60;;;;;;;;;;5026990;28;20028;-67
2021/06/02 12:02:24;;;;;;;8.15;3.10;;;;;;;;;;4992038;28;20112;-68
2021/06/02 12:04:50;;;;;;;6.05;2.92;;;;;;;;;;4989419;28;20061;-66
2021/06/02 12:07:25;;;;;;;5.22;2.60;;;;;;;;;;4987550;28;20198;-66
2021/06/02 12:09:52;;;;;;;4.80;2.75;;;;;;;;;;4994990;28;20054;-66
2021/06/02 12:12:18;;;;;;;5.70;2.70;;;;;;;;;;4999511;28;20067;-66
2021/06/02 12:14:54;;;;;;;4.28;2.15;;;;;;;;;;5009310;28;20054;-66
2021/06/02 12:17:26;;;;;;;5.47;2.55;;;;;;;;;;4982368;28;20490;-66
2021/06/02 12:19:52;;;;;;;6.93;3.33;;;;;;;;;;4992157;28;20088;-65
2021/06/02 12:22:22;;;;;;;5.60;2.72;;;;;;;;;;5016538;28;20370;-66
2021/06/02 12:25:06;;;;;;;6.50;2.65;;;;;;;;;;4986811;28;20026;-65
2021/06/02 12:27:39;;;;;;;7.28;2.22;;;;;;;;;;4990249;28;20121;-66
2021/06/02 12:30:06;;;;;;;7.03;2.55;;;;;;;;;;4988240;28;20105;-66
2021/06/02 12:32:50;;;;;;;5.47;2.80;;;;;;;;;;5025825;28;20030;-66
2021/06/02 12:35:26;;;;;;;4.93;2.63;;;;;;;;;;4987471;28;20045;-66
2021/06/02 12:38:13;;;;;;;5.07;2.67;;;;;;;;;;4978970;28;20023;-65
2021/06/02 12:40:49;;;;;;;7.97;3.35;;;;;;;;;;4984177;28;20455;-66
2021/06/02 12:43:15;;;;;;;6.07;2.38;;;;;;;;;;4974893;28;20088;-66
2021/06/02 12:45:41;;;;;;;5.18;2.22;;;;;;;;;;4996346;28;20027;-65
2021/06/02 12:48:08;;;;;;;6.55;2.22;;;;;;;;;;4991523;28;20038;-65
2021/06/02 12:50:34;;;;;;;5.38;2.33;;;;;;;;;;5014965;28;20518;-65
2021/06/02 12:53:00;;;;;;;5.18;2.70;;;;;;;;;;4985795;28;20031;-65
2021/06/02 12:55:26;;;;;;;5.13;2.70;;;;;;;;;;5029125;28;20029;-66
2021/06/02 12:58:13;;;;;;;5.13;2.70;;;;;;;;;;5012733;28;20126;-65
2021/06/02 13:00:40;;;;;;;4.95;2.50;;;;;;;;;;5048639;28;20061;-66
2021/06/02 13:03:06;;;;;;;8.00;2.90;;;;;;;;;;5048192;28;20036;-65
2021/06/02 13:05:32;;;;;;;8.57;2.50;;;;;;;;;;4989638;28;20023;-66
2021/06/02 13:08:06;;;;;;;5.28;2.45;;;;;;;;;;4987129;28;20019;-66
2021/06/02 13:10:33;;;;;;;5.00;2.75;;;;;;;;;;4989242;28;20168;-65
2021/06/02 13:13:00;;;;;;;5.10;2.70;;;;;;;;;;4982637;28;20279;-65
2021/06/02 13:15:27;;;;;;;6.40;3.10;;;;;;;;;;4989987;28;20487;-65
2021/06/02 13:17:53;;;;;;;7.25;2.83;;;;;;;;;;4988897;28;20026;-63
2021/06/02 13:20:30;;;;;;;4.53;2.45;;;;;;;;;;4987081;28;20030;-63
2021/06/02 13:23:15;;;;;;;7.57;2.70;;;;;;;;;;5017002;28;20085;-65
2021/06/02 13:25:42;;;;;;;7.43;3.03;;;;;;;;;;5021770;28;20038;-64
2021/06/02 13:28:08;;;;;;;8.07;2.53;;;;;;;;;;4991963;28;20045;-63
2021/06/02 13:30:45;;;;;;;4.95;2.83;;;;;;;;;;4988994;28;20033;-64
2021/06/02 13:33:12;;;;;;;6.20;2.50;;;;;;;;;;4990965;28;20397;-64
2021/06/02 13:35:38;;;;;;;6.22;2.63;;;;;;;;;;4990405;28;20033;-64
2021/06/02 13:38:04;;;;;;;8.25;3.17;;;;;;;;;;4985367;28;20022;-64
2021/06/02 13:40:39;;;;;;;7.00;2.65;;;;;;;;;;4986009;28;20022;-66
2021/06/02 13:43:18;;;;;;;7.80;2.58;;;;;;;;;;4984974;28;20110;-64
2021/06/02 13:45:55;;;;;;;5.60;2.67;;;;;;;;;;4990529;28;20031;-64
2021/06/02 13:48:27;;;;;;;4.85;2.42;;;;;;;;;;4987280;28;20393;-64
2021/06/02 13:51:12;;;;;;;5.80;2.85;;;;;;;;;;4991580;28;20050;-64
2021/06/02 13:53:57;;;;;;;6.80;2.95;;;;;;;;;;4987047;28;20042;-64
2021/06/02 13:56:23;;;;;;;7.43;2.92;;;;;;;;;;4984604;28;20071;-65
2021/06/02 13:59:11;;;;;;;6.55;2.80;;;;;;;;;;4986001;28;20085;-64
2021/06/02 14:01:38;;;;;;;6.80;2.67;;;;;;;;;;4979047;28;20117;-64
2021/06/02 14:04:05;;;;;;;5.55;2.40;;;;;;;;;;4982725;28;20125;-65
2021/06/02 14:06:31;;;;;;;4.93;2.80;;;;;;;;;;4983350;28;20399;-65
2021/06/02 14:08:57;;;;;;;5.18;2.70;;;;;;;;;;4981219;28;20062;-64
2021/06/02 14:11:24;;;;;;;8.20;2.75;;;;;;;;;;4982230;28;20099;-64
2021/06/02 14:13:50;;;;;;;6.93;2.95;;;;;;;;;;4984543;28;20014;-65
2021/06/02 14:16:19;;;;;;;5.80;3.05;;;;;;;;;;4982240;28;20033;-65
2021/06/02 14:18:45;;;;;;;5.47;2.63;;;;;;;;;;4981539;28;20023;-63
2021/06/02 14:21:12;;;;;;;8.43;2.97;;;;;;;;;;4989196;28;20027;-68
2021/06/02 14:23:38;;;;;;;18.67;4.93;;;;;;;;;;4985900;28;20113;-64
2021/06/02 14:26:04;;;;;;;7.00;3.22;;;;;;;;;;4982709;28;20451;-64
2021/06/02 14:28:30;;;;;;;40.00;20.50;;;;;;;;;;4988370;28;20404;-63
2021/06/02 14:30:56;;;;;;;20.02;9.80;;;;;;;;;;4985593;28;20031;-65
2021/06/02 14:33:23;;;;;;;8.25;4.80;;;;;;;;;;4984854;28;20090;-63
2021/06/02 14:35:49;;;;;;;6.50;2.83;;;;;;;;;;4986060;28;20068;-63
2021/06/02 14:38:15;;;;;;;10.90;5.55;;;;;;;;;;4982700;28;20038;-63
2021/06/02 14:40:41;;;;;;;11.65;7.43;;;;;;;;;;4984902;28;20413;-63
2021/06/02 14:43:08;;;;;;;7.90;3.80;;;;;;;;;;4984467;28;20027;-63
2021/06/02 14:45:34;;;;;;;7.45;4.28;;;;;;;;;;4982336;28;20087;-64
2021/06/02 14:48:00;;;;;;;9.60;5.30;;;;;;;;;;4983432;28;20042;-63
2021/06/02 14:50:26;;;;;;;10.02;4.50;;;;;;;;;;4981036;28;20026;-62
2021/06/02 14:52:56;;;;;;;7.55;4.70;;;;;;;;;;4977519;28;20322;-63
2021/06/02 14:55:23;;;;;;;6.00;4.32;;;;;;;;;;4980263;28;20027;-64
2021/06/02 14:57:49;;;;;;;6.80;4.03;;;;;;;;;;4979525;28;20183;-63